createdAt,value
2022-11-27T00:01:34.706Z,101612.00
2022-11-27T00:04:01.839Z,101606.22
2022-11-27T00:06:30.233Z,101603.28
2022-11-27T00:09:02.210Z,101589.44
2022-11-27T00:11:30.845Z,101581.78
2022-11-27T00:13:58.500Z,101577.34
2022-11-27T00:16:27.475Z,101571.25
2022-11-27T00:18:54.757Z,101575.88
2022-11-27T00:21:28.825Z,101563.97
2022-11-27T00:23:58.203Z,101562.78
2022-11-27T00:26:26.906Z,101554.72
2022-11-27T00:28:54.418Z,101557.59
2022-11-27T00:31:29.377Z,101554.31
2022-11-27T00:34:01.953Z,101555.03
2022-11-27T00:36:31.094Z,101553.88
2022-11-27T00:38:58.346Z,101554.84
2022-11-27T00:41:28.518Z,101552.56
2022-11-27T00:43:56.062Z,101544.78
2022-11-27T00:46:29.335Z,101549.25
2022-11-27T00:49:02.358Z,101548.03
2022-11-27T00:51:30.314Z,101543.44
2022-11-27T00:53:57.644Z,101543.66
2022-11-27T00:56:35.645Z,101539.84
2022-11-27T00:59:04.274Z,101536.00
2022-11-27T01:01:39.064Z,101531.34
2022-11-27T01:04:11.109Z,101530.88
2022-11-27T01:06:38.318Z,101523.28
2022-11-27T01:09:05.971Z,101521.59
2022-11-27T01:11:35.404Z,101521.97
2022-11-27T01:14:15.754Z,101521.75
2022-11-27T01:16:43.443Z,101513.97
2022-11-27T01:19:13.353Z,101518.09
2022-11-27T01:21:40.849Z,101523.88
2022-11-27T01:24:08.750Z,101520.75
2022-11-27T01:26:35.641Z,101520.06
2022-11-27T01:29:02.654Z,101520.63
2022-11-27T01:31:32.372Z,101517.88
2022-11-27T01:34:06.481Z,101515.94
2022-11-27T01:36:34.445Z,101519.16
2022-11-27T01:39:02.250Z,101519.56
2022-11-27T01:41:32.745Z,101519.44
2022-11-27T01:44:23.999Z,101521.78
2022-11-27T01:46:58.070Z,101528.25
2022-11-27T01:49:31.003Z,101518.41
2022-11-27T01:52:36.129Z,101520.91
2022-11-27T01:55:36.889Z,101518.31
2022-11-27T01:58:15.333Z,101501.13
2022-11-27T02:00:42.368Z,101499.94
2022-11-27T02:03:09.822Z,101513.72
2022-11-27T02:05:37.427Z,101514.28
2022-11-27T02:08:10.699Z,101511.38
2022-11-27T02:11:07.284Z,101522.56
2022-11-27T02:14:06.357Z,101523.72
2022-11-27T02:17:21.400Z,101525.59
2022-11-27T02:20:46.358Z,101523.72
2022-11-27T02:23:50.690Z,101524.84
2022-11-27T02:26:59.915Z,101525.13
2022-11-27T02:29:32.219Z,101527.50
2022-11-27T02:32:14.013Z,101523.25
2022-11-27T02:35:01.886Z,101530.28
2022-11-27T02:37:53.873Z,101531.03
2022-11-27T02:40:44.238Z,101516.09
2022-11-27T02:43:31.285Z,101505.09
2022-11-27T02:46:00.821Z,101493.16
2022-11-27T02:48:35.368Z,101488.13
2022-11-27T02:51:05.030Z,101482.31
2022-11-27T02:53:43.154Z,101485.84
2022-11-27T02:56:15.046Z,101485.50
2022-11-27T02:58:42.667Z,101475.31
2022-11-27T03:01:12.514Z,101474.22
2022-11-27T03:03:46.224Z,101471.13
2022-11-27T03:06:20.881Z,101473.13
2022-11-27T03:08:58.477Z,101472.28
2022-11-27T03:11:30.724Z,101468.16
2022-11-27T03:14:04.314Z,101463.63
2022-11-27T03:17:04.617Z,101464.06
2022-11-27T03:19:46.442Z,101470.72
2022-11-27T03:22:13.687Z,101469.63
2022-11-27T03:24:41.243Z,101467.38
2022-11-27T03:27:12.457Z,101467.91
2022-11-27T03:29:56.879Z,101470.31
2022-11-27T03:32:24.380Z,101462.47
2022-11-27T03:34:51.602Z,101458.28
2022-11-27T03:37:18.774Z,101454.00
2022-11-27T03:39:45.971Z,101462.34
2022-11-27T03:42:29.437Z,101452.56
2022-11-27T03:45:21.172Z,101436.97
2022-11-27T03:49:01.784Z,101450.28
2022-11-27T03:51:55.049Z,101465.72
2022-11-27T03:54:44.425Z,101474.19
2022-11-27T03:57:44.802Z,101471.50
2022-11-27T04:00:12.958Z,101461.03
2022-11-27T04:02:54.015Z,101457.56
2022-11-27T04:05:21.213Z,101452.34
2022-11-27T04:07:48.683Z,101441.28
2022-11-27T04:10:15.845Z,101439.06
2022-11-27T04:12:43.232Z,101446.84
2022-11-27T04:15:11.279Z,101450.41
2022-11-27T04:17:38.149Z,101450.31
2022-11-27T04:20:06.584Z,101444.50
2022-11-27T04:22:33.481Z,101442.94
2022-11-27T04:25:00.554Z,101441.03
2022-11-27T04:27:27.531Z,101439.97
2022-11-27T04:29:54.438Z,101446.56
2022-11-27T04:32:21.422Z,101438.38
2022-11-27T04:34:48.326Z,101433.84
2022-11-27T04:37:15.609Z,101432.66
2022-11-27T04:39:43.509Z,101429.94
2022-11-27T04:42:10.691Z,101424.13
2022-11-27T04:44:37.825Z,101421.56
2022-11-27T04:47:05.159Z,101424.03
2022-11-27T04:49:32.130Z,101416.66
2022-11-27T04:51:59.154Z,101413.19
2022-11-27T04:54:26.220Z,101413.31
2022-11-27T04:56:53.206Z,101410.53
2022-11-27T04:59:20.211Z,101417.34
2022-11-27T05:01:47.428Z,101415.38
2022-11-27T05:04:14.494Z,101409.91
2022-11-27T05:06:41.503Z,101404.81
2022-11-27T05:09:08.634Z,101402.66
2022-11-27T05:11:35.641Z,101413.47
2022-11-27T05:14:22.620Z,101404.97
2022-11-27T05:16:53.717Z,101407.41
2022-11-27T05:19:24.614Z,101406.19
2022-11-27T05:21:52.330Z,101408.38
2022-11-27T05:24:22.629Z,101411.03
2022-11-27T05:26:50.145Z,101413.03
2022-11-27T05:29:17.525Z,101413.78
2022-11-27T05:31:45.054Z,101400.94
2022-11-27T05:34:12.526Z,101398.38
2022-11-27T05:36:39.614Z,101408.00
2022-11-27T05:39:08.286Z,101397.50
2022-11-27T05:41:37.645Z,101393.31
2022-11-27T05:44:05.095Z,101400.88
2022-11-27T05:46:32.605Z,101402.16
2022-11-27T05:48:59.756Z,101405.50
2022-11-27T05:51:26.987Z,101413.66
2022-11-27T05:53:54.326Z,101414.28
2022-11-27T05:56:21.271Z,101399.16
2022-11-27T05:58:49.534Z,101400.34
2022-11-27T06:01:19.442Z,101386.72
2022-11-27T06:03:47.776Z,101381.81
2022-11-27T06:06:18.558Z,101381.59
2022-11-27T06:08:46.652Z,101386.97
2022-11-27T06:11:23.453Z,101383.84
2022-11-27T06:13:50.951Z,101377.78
2022-11-27T06:16:24.304Z,101357.81
2022-11-27T06:18:54.562Z,101341.91
2022-11-27T06:21:24.114Z,101342.19
2022-11-27T06:23:56.078Z,101341.69
2022-11-27T06:26:30.021Z,101345.97
2022-11-27T06:28:59.323Z,101348.13
2022-11-27T06:31:30.658Z,101349.25
2022-11-27T06:33:58.841Z,101345.91
2022-11-27T06:36:34.277Z,101362.56
2022-11-27T06:39:02.660Z,101380.94
2022-11-27T06:41:30.054Z,101384.00
2022-11-27T06:43:59.676Z,101387.41
2022-11-27T06:46:27.875Z,101377.78
2022-11-27T06:48:55.447Z,101376.00
2022-11-27T06:51:26.151Z,101366.06
2022-11-27T06:53:54.158Z,101365.47
2022-11-27T06:56:25.628Z,101339.63
2022-11-27T06:58:58.921Z,101335.44
2022-11-27T07:01:29.153Z,101329.56
2022-11-27T07:03:56.797Z,101320.91
2022-11-27T07:06:26.459Z,101316.25
2022-11-27T07:08:55.606Z,101320.72
2022-11-27T07:11:29.719Z,101309.19
2022-11-27T07:14:01.234Z,101307.16
2022-11-27T07:16:31.396Z,101313.84
2022-11-27T07:19:07.745Z,101318.50
2022-11-27T07:21:38.279Z,101343.88
2022-11-27T07:24:05.641Z,101345.53
2022-11-27T07:26:32.772Z,101343.88
2022-11-27T07:29:00.166Z,101329.28
2022-11-27T07:31:30.138Z,101344.00
2022-11-27T07:33:58.142Z,101349.78
2022-11-27T07:36:28.686Z,101340.00
2022-11-27T07:38:56.056Z,101344.31
2022-11-27T07:41:22.965Z,101341.53
2022-11-27T07:43:50.162Z,101336.44
2022-11-27T07:46:23.397Z,101334.78
2022-11-27T07:48:50.569Z,101312.00
2022-11-27T07:51:20.394Z,101306.59
2022-11-27T07:53:48.573Z,101301.63
2022-11-27T07:56:16.829Z,101306.47
2022-11-27T07:58:44.488Z,101307.03
2022-11-27T08:01:17.053Z,101301.72
2022-11-27T08:03:44.387Z,101295.13
2022-11-27T08:06:21.724Z,101291.28
2022-11-27T08:08:49.274Z,101281.47
2022-11-27T08:11:29.934Z,101278.06
2022-11-27T08:14:00.455Z,101273.59
2022-11-27T08:16:28.579Z,101266.44
2022-11-27T08:18:56.195Z,101273.06
2022-11-27T08:21:24.108Z,101271.97
2022-11-27T08:23:51.047Z,101264.50
2022-11-27T08:26:18.528Z,101267.47
2022-11-27T08:28:45.568Z,101260.91
2022-11-27T08:31:14.682Z,101266.06
2022-11-27T08:33:41.701Z,101263.31
2022-11-27T08:36:13.723Z,101267.72
2022-11-27T08:38:44.614Z,101280.19
2022-11-27T08:41:11.551Z,101270.69
2022-11-27T08:43:38.458Z,101267.84
2022-11-27T08:46:07.477Z,101276.41
2022-11-27T08:48:34.873Z,101290.59
2022-11-27T08:51:07.779Z,101283.72
2022-11-27T08:53:37.385Z,101292.69
2022-11-27T08:56:18.867Z,101281.34
2022-11-27T08:58:47.903Z,101289.81
2022-11-27T09:01:21.940Z,101290.28
2022-11-27T09:03:49.626Z,101292.41
2022-11-27T09:06:22.268Z,101287.78
2022-11-27T09:08:50.426Z,101282.03
2022-11-27T09:11:20.023Z,101275.56
2022-11-27T09:13:48.313Z,101267.03
2022-11-27T09:16:18.885Z,101266.91
2022-11-27T09:18:47.948Z,101254.47
2022-11-27T09:21:18.820Z,101256.66
2022-11-27T09:23:46.356Z,101247.13
2022-11-27T09:26:16.715Z,101235.34
2022-11-27T09:28:44.992Z,101243.34
2022-11-27T09:31:15.759Z,101247.19
2022-11-27T09:33:43.499Z,101252.94
2022-11-27T09:36:14.029Z,101255.03
2022-11-27T09:38:42.454Z,101253.00
2022-11-27T09:41:43.541Z,101251.13
2022-11-27T09:44:24.865Z,101248.44
2022-11-27T09:46:54.353Z,101244.28
2022-11-27T09:49:38.242Z,101233.44
2022-11-27T09:52:11.866Z,101232.78
2022-11-27T09:55:00.457Z,101223.97
2022-11-27T09:57:35.303Z,101217.31
2022-11-27T10:00:19.576Z,101207.59
2022-11-27T10:02:46.794Z,101215.38
2022-11-27T10:05:51.787Z,101207.25
2022-11-27T10:09:04.358Z,101209.25
2022-11-27T10:11:56.831Z,101213.09
2022-11-27T10:14:39.041Z,101208.06
2022-11-27T10:17:20.760Z,101214.03
2022-11-27T10:20:10.354Z,101210.28
2022-11-27T10:23:05.146Z,101202.47
2022-11-27T10:25:44.923Z,101185.13
2022-11-27T10:28:41.507Z,101176.25
2022-11-27T10:31:18.757Z,101172.19
2022-11-27T10:33:53.739Z,101168.84
2022-11-27T10:36:43.639Z,101156.31
2022-11-27T10:39:24.840Z,101141.97
2022-11-27T10:42:07.434Z,101139.13
2022-11-27T10:44:41.155Z,101127.50
2022-11-27T10:47:11.497Z,101116.25
2022-11-27T10:49:41.649Z,101113.75
2022-11-27T10:52:15.358Z,101106.84
2022-11-27T10:54:44.482Z,101125.25
2022-11-27T10:57:48.621Z,101130.97
2022-11-27T11:00:27.009Z,101135.94
2022-11-27T11:03:02.474Z,101129.19
2022-11-27T11:06:04.800Z,101121.97
2022-11-27T11:08:20.501Z,101115.72
2022-11-27T11:11:02.953Z,101106.38
2022-11-27T11:13:40.239Z,101093.78
2022-11-27T11:16:24.010Z,101079.31
2022-11-27T11:18:54.663Z,101082.06
2022-11-27T11:21:37.522Z,101093.75
2022-11-27T11:24:13.856Z,101086.66
2022-11-27T11:26:47.458Z,101083.25
2022-11-27T11:29:40.768Z,101074.97
2022-11-27T11:32:13.367Z,101079.59
2022-11-27T11:34:48.990Z,101076.72
2022-11-27T11:37:25.312Z,101055.44
2022-11-27T11:40:31.310Z,101061.03
2022-11-27T11:43:06.525Z,101059.09
2022-11-27T11:45:35.229Z,101058.88
2022-11-27T11:48:19.593Z,101047.59
2022-11-27T11:51:02.447Z,101052.13
2022-11-27T11:53:42.623Z,101051.34
2022-11-27T11:56:33.178Z,101045.13
2022-11-27T11:59:17.526Z,101038.13
2022-11-27T12:02:15.202Z,101032.16
2022-11-27T12:05:32.090Z,101038.47
2022-11-27T12:08:11.093Z,101026.22
2022-11-27T12:11:15.486Z,101020.28
2022-11-27T12:14:01.190Z,101034.00
2022-11-27T12:17:10.618Z,101014.34
2022-11-27T12:19:46.390Z,101024.78
2022-11-27T12:22:50.484Z,101013.97
2022-11-27T12:25:53.832Z,101011.44
2022-11-27T12:28:54.445Z,101007.09
2022-11-27T12:31:53.716Z,101009.63
2022-11-27T12:34:39.017Z,101001.31
2022-11-27T12:37:14.950Z,100999.03
2022-11-27T12:40:22.875Z,100992.69
2022-11-27T12:43:40.989Z,100976.91
2022-11-27T12:46:28.851Z,100982.28
2022-11-27T12:49:20.716Z,100984.25
2022-11-27T12:51:56.483Z,100976.50
2022-11-27T12:54:55.888Z,100971.25
2022-11-27T12:57:40.899Z,100979.22
2022-11-27T13:00:20.469Z,100977.84
2022-11-27T13:03:35.849Z,100970.00
2022-11-27T13:06:24.195Z,100970.84
2022-11-27T13:09:03.946Z,100986.03
2022-11-27T13:11:38.808Z,100980.34
2022-11-27T13:14:22.295Z,100976.44
2022-11-27T13:16:56.775Z,100980.53
2022-11-27T13:19:23.743Z,100978.38
2022-11-27T13:21:53.382Z,100962.72
2022-11-27T13:24:21.278Z,100952.06
2022-11-27T13:26:56.435Z,100953.38
2022-11-27T13:29:42.789Z,100955.38
2022-11-27T13:32:19.312Z,100940.88
2022-11-27T13:34:48.147Z,100941.28
2022-11-27T13:37:36.160Z,100926.75
2022-11-27T13:40:33.261Z,100916.59
2022-11-27T13:43:07.202Z,100911.72
2022-11-27T13:45:37.446Z,100911.94
2022-11-27T13:48:27.669Z,100897.38
2022-11-27T13:50:55.737Z,100891.69
2022-11-27T13:53:38.684Z,100881.97
2022-11-27T13:56:07.551Z,100872.97
2022-11-27T13:58:41.642Z,100878.84
2022-11-27T14:01:25.738Z,100867.47
2022-11-27T14:03:53.245Z,100857.34
2022-11-27T14:06:30.526Z,100851.16
2022-11-27T14:09:07.879Z,100841.22
2022-11-27T14:11:48.349Z,100830.47
2022-11-27T14:14:20.710Z,100831.91
2022-11-27T14:17:02.677Z,100824.78
2022-11-27T14:19:41.923Z,100845.66
2022-11-27T14:22:33.984Z,100842.69
2022-11-27T14:25:00.948Z,100828.31
2022-11-27T14:27:35.723Z,100837.72
2022-11-27T14:30:30.318Z,100840.50
2022-11-27T14:32:57.336Z,100837.91
2022-11-27T14:35:27.308Z,100842.88
2022-11-27T14:37:54.668Z,100833.69
2022-11-27T14:40:27.186Z,100829.84
2022-11-27T14:42:54.138Z,100823.84
2022-11-27T14:45:23.984Z,100819.84
2022-11-27T14:47:55.810Z,100811.25
2022-11-27T14:50:23.266Z,100803.81
2022-11-27T14:52:58.436Z,100804.75
2022-11-27T14:55:31.641Z,100797.63
2022-11-27T14:58:02.829Z,100797.19
2022-11-27T15:00:32.170Z,100797.84
2022-11-27T15:03:10.064Z,100791.31
2022-11-27T15:05:38.545Z,100787.69
2022-11-27T15:08:10.423Z,100783.78
2022-11-27T15:10:42.550Z,100791.94
2022-11-27T15:13:29.823Z,100788.00
2022-11-27T15:16:13.792Z,100775.41
2022-11-27T15:19:03.897Z,100766.19
2022-11-27T15:21:34.402Z,100763.22
2022-11-27T15:24:01.538Z,100768.09
2022-11-27T15:26:40.466Z,100766.03
2022-11-27T15:29:53.624Z,100771.19
2022-11-27T15:32:26.941Z,100766.94
2022-11-27T15:34:54.708Z,100766.31
2022-11-27T15:37:34.323Z,100759.00
2022-11-27T15:40:01.977Z,100755.25
2022-11-27T15:42:30.204Z,100751.56
2022-11-27T15:44:58.360Z,100739.16
2022-11-27T15:47:35.574Z,100751.75
2022-11-27T15:50:03.682Z,100737.00
2022-11-27T15:52:31.097Z,100729.97
2022-11-27T15:54:58.659Z,100736.19
2022-11-27T15:57:26.474Z,100739.69
2022-11-27T15:59:53.530Z,100734.19
2022-11-27T16:02:20.477Z,100735.91
2022-11-27T16:04:47.458Z,100733.34
2022-11-27T16:07:17.417Z,100718.97
2022-11-27T16:09:44.391Z,100709.97
2022-11-27T16:12:11.339Z,100710.81
2022-11-27T16:14:38.460Z,100710.53
2022-11-27T16:17:05.687Z,100719.13
2022-11-27T16:19:32.661Z,100719.13
2022-11-27T16:22:01.111Z,100719.28
2022-11-27T16:24:28.071Z,100707.13
2022-11-27T16:26:55.138Z,100702.66
2022-11-27T16:29:22.333Z,100700.38
2022-11-27T16:31:49.561Z,100707.50
2022-11-27T16:34:17.194Z,100700.38
2022-11-27T16:36:44.420Z,100695.03
2022-11-27T16:39:12.407Z,100703.50
2022-11-27T16:41:39.429Z,100698.13
2022-11-27T16:44:12.807Z,100689.56
2022-11-27T16:46:40.953Z,100688.41
2022-11-27T16:49:07.911Z,100673.38
2022-11-27T16:51:37.785Z,100667.06
2022-11-27T16:54:08.551Z,100656.13
2022-11-27T16:56:36.257Z,100648.06
2022-11-27T16:59:07.490Z,100637.53
2022-11-27T17:01:36.153Z,100629.47
2022-11-27T17:04:09.105Z,100640.28
2022-11-27T17:06:38.228Z,100636.78
2022-11-27T17:09:07.749Z,100648.34
2022-11-27T17:11:37.517Z,100644.97
2022-11-27T17:14:07.669Z,100646.50
2022-11-27T17:16:36.144Z,100651.66
2022-11-27T17:19:03.345Z,100648.88
2022-11-27T17:21:34.226Z,100638.75
2022-11-27T17:24:11.573Z,100596.44
2022-11-27T17:26:44.397Z,100604.88
2022-11-27T17:29:17.643Z,100602.34
2022-11-27T17:31:44.899Z,100604.50
2022-11-27T17:34:14.637Z,100613.19
2022-11-27T17:36:43.165Z,100608.22
2022-11-27T17:39:13.692Z,100576.84
2022-11-27T17:41:41.672Z,100571.91
2022-11-27T17:44:08.907Z,100585.19
2022-11-27T17:46:36.969Z,100585.00
2022-11-27T17:49:06.966Z,100577.38
2022-11-27T17:51:35.346Z,100580.25
2022-11-27T17:54:03.374Z,100566.59
2022-11-27T17:56:30.668Z,100564.75
2022-11-27T17:58:59.717Z,100561.16
2022-11-27T18:01:29.146Z,100569.00
2022-11-27T18:04:02.339Z,100570.03
2022-11-27T18:06:29.964Z,100558.28
2022-11-27T18:08:58.075Z,100552.53
2022-11-27T18:11:28.405Z,100553.34
2022-11-27T18:13:55.644Z,100545.06
2022-11-27T18:16:30.930Z,100552.19
2022-11-27T18:18:59.314Z,100537.69
2022-11-27T18:21:28.507Z,100527.19
2022-11-27T18:29:33.531Z,100546.09
2022-11-27T18:32:00.724Z,100545.97
2022-11-27T18:34:27.782Z,100536.97
2022-11-27T18:36:57.308Z,100528.41
2022-11-27T18:39:24.251Z,100519.03
2022-11-27T18:41:52.284Z,100502.53
2022-11-27T18:44:19.575Z,100503.69
2022-11-27T18:46:46.797Z,100498.94
2022-11-27T18:49:13.869Z,100501.66
2022-11-27T18:51:42.033Z,100493.00
2022-11-27T18:54:09.074Z,100484.53
2022-11-27T18:56:37.152Z,100481.94
2022-11-27T18:59:06.348Z,100476.72
2022-11-27T19:01:41.189Z,100475.88
2022-11-27T19:04:11.176Z,100476.38
2022-11-27T19:06:39.759Z,100491.94
2022-11-27T19:09:07.661Z,100489.13
2022-11-27T19:11:35.403Z,100481.06
2022-11-27T19:14:02.690Z,100476.22
2022-11-27T19:16:44.743Z,100489.94
2022-11-27T19:22:08.313Z,100470.69
2022-11-27T19:24:35.710Z,100462.69
2022-11-27T19:27:02.980Z,100483.34
2022-11-27T19:29:29.938Z,100473.47
2022-11-27T19:31:58.747Z,100448.31
2022-11-27T19:34:25.901Z,100446.22
2022-11-27T19:36:53.121Z,100456.75
2022-11-27T19:39:20.188Z,100452.09
2022-11-27T19:41:47.186Z,100446.47
2022-11-27T19:44:14.151Z,100441.91
2022-11-27T19:46:41.292Z,100446.00
2022-11-27T19:49:14.083Z,100437.16
2022-11-27T19:51:41.772Z,100449.91
2022-11-27T19:54:13.029Z,100441.66
2022-11-27T19:56:42.408Z,100441.69
2022-11-27T19:59:11.265Z,100460.84
2022-11-27T20:01:40.181Z,100448.41
2022-11-27T20:04:07.808Z,100446.84
2022-11-27T20:06:34.869Z,100444.31
2022-11-27T20:09:04.627Z,100447.09
2022-11-27T20:11:37.928Z,100443.78
2022-11-27T20:14:06.765Z,100443.44
2022-11-27T20:16:35.508Z,100447.22
2022-11-27T20:19:05.480Z,100437.31
2022-11-27T20:21:32.622Z,100442.06
2022-11-27T20:23:59.603Z,100435.63
2022-11-27T20:26:28.999Z,100427.22
2022-11-27T20:28:56.725Z,100433.94
2022-11-27T20:31:34.842Z,100430.63
2022-11-27T20:34:04.863Z,100430.09
2022-11-27T20:36:35.104Z,100428.44
2022-11-27T20:39:02.225Z,100427.41
2022-11-27T20:41:30.220Z,100422.88
2022-11-27T20:44:01.221Z,100411.50
2022-11-27T20:46:28.764Z,100407.75
2022-11-27T20:48:56.498Z,100408.00
2022-11-27T20:51:30.921Z,100408.84
2022-11-27T20:53:59.984Z,100399.88
2022-11-27T20:56:28.115Z,100403.19
2022-11-27T20:58:55.181Z,100415.53
2022-11-27T21:01:31.247Z,100408.50
2022-11-27T21:04:00.719Z,100399.22
2022-11-27T21:06:32.036Z,100407.66
2022-11-27T21:09:05.032Z,100405.31
2022-11-27T21:11:33.841Z,100405.19
2022-11-27T21:14:07.530Z,100393.75
2022-11-27T21:16:39.455Z,100385.66
2022-11-27T21:19:12.651Z,100387.38
2022-11-27T21:21:39.646Z,100401.44
2022-11-27T21:24:07.169Z,100387.09
2022-11-27T21:26:35.095Z,100379.06
2022-11-27T21:29:02.206Z,100376.63
2022-11-27T21:31:35.871Z,100372.00
2022-11-27T21:34:07.203Z,100367.44
2022-11-27T21:36:36.913Z,100371.31
2022-11-27T21:39:10.825Z,100364.75
2022-11-27T21:41:37.832Z,100370.63
2022-11-27T21:44:05.831Z,100372.25
2022-11-27T21:46:32.850Z,100364.16
2022-11-27T21:49:01.192Z,100352.81
2022-11-27T21:51:29.689Z,100339.44
2022-11-27T21:53:58.784Z,100341.19
2022-11-27T21:56:28.759Z,100337.56
2022-11-27T21:58:56.115Z,100342.31
2022-11-27T22:01:24.813Z,100344.66
2022-11-27T22:03:56.566Z,100336.22
2022-11-27T22:06:27.933Z,100333.63
2022-11-27T22:08:59.052Z,100339.91
2022-11-27T22:11:30.698Z,100341.03
2022-11-27T22:14:04.014Z,100336.00
2022-11-27T22:16:37.643Z,100328.19
2022-11-27T22:19:10.205Z,100328.16
2022-11-27T22:21:37.242Z,100321.06
2022-11-27T22:24:04.484Z,100318.78
2022-11-27T22:26:31.598Z,100309.88
2022-11-27T22:28:58.951Z,100310.38
2022-11-27T22:31:32.932Z,100302.56
2022-11-27T22:34:00.333Z,100294.19
2022-11-27T22:36:32.290Z,100291.28
2022-11-27T22:39:02.683Z,100291.41
2022-11-27T22:41:36.588Z,100286.72
2022-11-27T22:44:16.603Z,100287.78
2022-11-27T22:46:45.128Z,100287.00
2022-11-27T22:49:14.984Z,100283.56
2022-11-27T22:51:42.356Z,100274.44
2022-11-27T22:54:13.603Z,100278.00
2022-11-27T22:56:41.038Z,100271.84
2022-11-27T23:01:55.125Z,100287.09
2022-11-27T23:04:22.036Z,100286.50
2022-11-27T23:06:49.283Z,100284.09
2022-11-27T23:09:20.397Z,100285.59
2022-11-27T23:11:48.164Z,100286.94
2022-11-27T23:14:15.554Z,100278.41
2022-11-27T23:16:42.726Z,100272.91
2022-11-27T23:19:10.989Z,100272.34
2022-11-27T23:21:39.120Z,100275.91
2022-11-27T23:24:09.627Z,100282.94
2022-11-27T23:26:36.652Z,100283.22
2022-11-27T23:29:04.811Z,100272.63
2022-11-27T23:31:35.189Z,100268.59
2022-11-27T23:34:07.486Z,100263.28
2022-11-27T23:36:35.211Z,100272.53
2022-11-27T23:39:05.068Z,100263.50
2022-11-27T23:41:32.782Z,100261.19
2022-11-27T23:43:59.767Z,100256.66
2022-11-27T23:46:29.731Z,100259.44
2022-11-27T23:48:59.744Z,100246.53
2022-11-27T23:51:31.903Z,100242.47
2022-11-27T23:53:59.943Z,100241.31
2022-11-27T23:56:30.971Z,100236.44
2022-11-27T23:58:59.791Z,100228.94
